Time;durP1;ratioP1;P1;durP2;ratioP2;P2;SDS_P1;SDS_P2;PMS_P1;PMS_P2;Temp;Humidity;BMP_temperature;BMP_pressure;BME280_temperature;BME280_humidity;BME280_pressure;Samples;Min_cycle;Max_cycle;Signal;HPM_P1;HPM_P2
2021/12/20 00:00:53;;;;;;;10.40;4.27;;;;;;;;;;5091043;28;20416;-55
2021/12/20 00:03:20;;;;;;;14.53;4.60;;;;;;;;;;5091440;28;20756;-58
2021/12/20 00:05:46;;;;;;;18.10;4.70;;;;;;;;;;5091388;28;20402;-54
2021/12/20 00:08:12;;;;;;;8.10;4.60;;;;;;;;;;5091404;28;20429;-55
2021/12/20 00:10:38;;;;;;;7.73;4.83;;;;;;;;;;5091289;28;20744;-60
2021/12/20 00:13:04;;;;;;;14.33;4.60;;;;;;;;;;5091187;28;20406;-56
2021/12/20 00:15:30;;;;;;;14.13;5.27;;;;;;;;;;5091570;28;20800;-52
2021/12/20 00:17:56;;;;;;;15.13;5.87;;;;;;;;;;5091548;28;20401;-59
2021/12/20 00:20:22;;;;;;;8.83;5.23;;;;;;;;;;5091348;28;20445;-53
2021/12/20 00:22:48;;;;;;;13.30;3.63;;;;;;;;;;5091226;28;20469;-56
2021/12/20 00:25:14;;;;;;;17.07;5.17;;;;;;;;;;5088920;28;20409;-58
2021/12/20 00:27:40;;;;;;;16.13;5.30;;;;;;;;;;5091877;28;20413;-56
2021/12/20 00:30:07;;;;;;;15.80;5.03;;;;;;;;;;5091969;28;20863;-58
2021/12/20 00:32:33;;;;;;;10.90;4.97;;;;;;;;;;5090567;28;20417;-56
2021/12/20 00:34:59;;;;;;;15.00;4.93;;;;;;;;;;5092885;28;20473;-57
2021/12/20 00:40:20;;;;;;;11.70;4.10;;;;;;;;;;5096090;28;20439;-53
2021/12/20 00:42:47;;;;;;;10.10;4.40;;;;;;;;;;5095369;28;20463;-53
2021/12/20 00:45:13;;;;;;;10.83;4.33;;;;;;;;;;5095643;28;20890;-53
2021/12/20 00:47:40;;;;;;;11.77;4.23;;;;;;;;;;5095498;28;20397;-55
2021/12/20 00:50:07;;;;;;;8.80;4.47;;;;;;;;;;5095325;28;20413;-54
2021/12/20 00:52:33;;;;;;;6.50;3.70;;;;;;;;;;5095340;28;20402;-52
2021/12/20 00:54:59;;;;;;;6.40;4.17;;;;;;;;;;5095307;28;20479;-53
2021/12/20 00:57:25;;;;;;;8.10;4.37;;;;;;;;;;5095161;28;20402;-53
2021/12/20 00:59:51;;;;;;;16.90;4.77;;;;;;;;;;5095040;28;20501;-52
2021/12/20 01:02:17;;;;;;;10.00;3.97;;;;;;;;;;5094861;28;20527;-54
2021/12/20 01:04:43;;;;;;;11.17;4.13;;;;;;;;;;5093708;28;20899;-53
2021/12/20 01:07:09;;;;;;;12.73;4.13;;;;;;;;;;5095096;28;20421;-52
2021/12/20 01:09:35;;;;;;;12.40;4.87;;;;;;;;;;5094881;28;20495;-54
2021/12/20 01:12:05;;;;;;;8.57;4.13;;;;;;;;;;5094738;28;20450;-55
2021/12/20 01:14:33;;;;;;;11.63;4.73;;;;;;;;;;5094957;28;20398;-52
2021/12/20 01:17:05;;;;;;;10.23;4.30;;;;;;;;;;5095082;28;20772;-53
2021/12/20 01:19:32;;;;;;;6.10;4.00;;;;;;;;;;5094719;28;20457;-55
2021/12/20 01:21:58;;;;;;;7.80;4.13;;;;;;;;;;5094547;28;20472;-53
2021/12/20 01:24:24;;;;;;;9.13;4.50;;;;;;;;;;5094634;28;20405;-53
2021/12/20 01:26:50;;;;;;;8.73;4.83;;;;;;;;;;5094689;28;21015;-52
2021/12/20 01:29:16;;;;;;;11.87;4.77;;;;;;;;;;5094517;28;20398;-53
2021/12/20 01:31:42;;;;;;;8.07;4.10;;;;;;;;;;5094561;28;20446;-55
2021/12/20 01:34:08;;;;;;;10.13;4.10;;;;;;;;;;5094327;28;20409;-57
2021/12/20 01:36:34;;;;;;;9.07;4.40;;;;;;;;;;5094363;28;20421;-57
2021/12/20 01:39:00;;;;;;;5.10;4.17;;;;;;;;;;5092809;28;20410;-53
2021/12/20 01:41:26;;;;;;;9.83;3.63;;;;;;;;;;5094329;28;20478;-53
2021/12/20 01:43:56;;;;;;;5.53;3.67;;;;;;;;;;5094616;28;20909;-54
2021/12/20 01:46:23;;;;;;;9.57;4.27;;;;;;;;;;5093740;28;20417;-53
2021/12/20 01:48:49;;;;;;;14.77;4.50;;;;;;;;;;5094238;28;20924;-53
2021/12/20 01:51:34;;;;;;;11.00;3.93;;;;;;;;;;5094158;28;20429;-54
2021/12/20 01:54:00;;;;;;;9.07;4.17;;;;;;;;;;5094521;28;20468;-51
2021/12/20 01:56:26;;;;;;;5.30;3.20;;;;;;;;;;5094197;28;20433;-51
2021/12/20 01:58:52;;;;;;;8.57;4.07;;;;;;;;;;5094335;28;20423;-55
2021/12/20 02:01:19;;;;;;;5.27;4.30;;;;;;;;;;5093916;28;20461;-54
2021/12/20 02:03:49;;;;;;;9.20;4.30;;;;;;;;;;5094095;28;20410;-55
2021/12/20 02:06:34;;;;;;;17.10;4.87;;;;;;;;;;5094131;28;20402;-55
2021/12/20 02:09:02;;;;;;;8.87;4.83;;;;;;;;;;5093819;28;20398;-52
2021/12/20 02:11:28;;;;;;;13.47;5.10;;;;;;;;;;5092854;28;20406;-53
2021/12/20 02:13:54;;;;;;;9.10;4.40;;;;;;;;;;5093752;28;20493;-53
2021/12/20 02:16:20;;;;;;;10.80;4.47;;;;;;;;;;5093788;28;20398;-54
2021/12/20 02:18:47;;;;;;;12.93;4.83;;;;;;;;;;5093541;28;20405;-56
2021/12/20 02:21:13;;;;;;;11.50;5.20;;;;;;;;;;5093458;28;20552;-57
2021/12/20 02:23:39;;;;;;;19.53;4.93;;;;;;;;;;5092535;28;20417;-56
2021/12/20 02:26:06;;;;;;;16.33;5.40;;;;;;;;;;5093444;28;20409;-54
2021/12/20 02:28:38;;;;;;;18.10;5.40;;;;;;;;;;5093392;28;20589;-51
2021/12/20 02:39:23;;;;;;;7.90;4.80;;;;;;;;;;5093437;28;20409;-55
2021/12/20 02:41:49;;;;;;;8.90;4.33;;;;;;;;;;5093090;28;20479;-53
2021/12/20 02:44:20;;;;;;;5.70;4.13;;;;;;;;;;5093039;28;20882;-54
2021/12/20 02:47:02;;;;;;;12.47;4.43;;;;;;;;;;5093171;28;20416;-52
2021/12/20 02:49:28;;;;;;;13.00;5.07;;;;;;;;;;5093097;28;20405;-55
2021/12/20 02:51:58;;;;;;;10.37;4.77;;;;;;;;;;5093063;28;20412;-54
2021/12/20 02:54:24;;;;;;;7.60;3.97;;;;;;;;;;5092945;28;20406;-60
2021/12/20 02:56:50;;;;;;;13.00;4.50;;;;;;;;;;5092941;28;20504;-54
2021/12/20 02:59:17;;;;;;;7.80;5.77;;;;;;;;;;5092024;28;20416;-56
2021/12/20 03:01:44;;;;;;;14.00;5.47;;;;;;;;;;5092824;28;20460;-61
2021/12/20 03:04:10;;;;;;;6.20;4.60;;;;;;;;;;5092715;28;20456;-55
2021/12/20 03:06:41;;;;;;;8.83;5.10;;;;;;;;;;5092781;28;20815;-52
2021/12/20 03:09:10;;;;;;;13.77;4.87;;;;;;;;;;5092937;28;20418;-53
2021/12/20 03:11:36;;;;;;;9.73;5.70;;;;;;;;;;5092537;28;20497;-53
2021/12/20 03:14:19;;;;;;;13.70;4.77;;;;;;;;;;5092510;28;20416;-52
2021/12/20 03:16:45;;;;;;;8.03;4.27;;;;;;;;;;5092699;28;20492;-57
2021/12/20 03:19:11;;;;;;;14.40;5.10;;;;;;;;;;5092596;28;20540;-53
2021/12/20 03:21:37;;;;;;;7.53;4.47;;;;;;;;;;5090955;28;20980;-53
2021/12/20 03:24:04;;;;;;;6.43;4.87;;;;;;;;;;5092649;28;20394;-55
2021/12/20 03:26:30;;;;;;;5.80;4.37;;;;;;;;;;5092255;28;20437;-56
2021/12/20 03:28:56;;;;;;;5.23;4.40;;;;;;;;;;5092192;28;20882;-62
2021/12/20 03:31:22;;;;;;;4.90;4.50;;;;;;;;;;5092261;28;20409;-63
2021/12/20 03:33:48;;;;;;;8.17;4.80;;;;;;;;;;5092139;28;20420;-59
2021/12/20 03:36:14;;;;;;;8.47;5.20;;;;;;;;;;5092026;28;20972;-52
2021/12/20 03:38:40;;;;;;;5.67;5.20;;;;;;;;;;5092494;28;20413;-55
2021/12/20 03:41:06;;;;;;;10.73;5.40;;;;;;;;;;5091883;28;20463;-56
2021/12/20 03:43:33;;;;;;;11.07;5.80;;;;;;;;;;5091920;28;20417;-56
2021/12/20 03:46:00;;;;;;;11.90;4.77;;;;;;;;;;5091836;28;20402;-62
2021/12/20 03:48:26;;;;;;;9.50;4.50;;;;;;;;;;5091976;28;20409;-61
2021/12/20 03:50:52;;;;;;;5.57;4.07;;;;;;;;;;5092307;28;20492;-56
2021/12/20 03:53:18;;;;;;;12.43;4.70;;;;;;;;;;5091947;28;20417;-53
2021/12/20 03:55:44;;;;;;;8.23;4.77;;;;;;;;;;5091698;28;20398;-56
2021/12/20 03:58:10;;;;;;;12.90;4.87;;;;;;;;;;5091974;28;20958;-57
2021/12/20 04:00:36;;;;;;;10.67;4.67;;;;;;;;;;5091863;28;20436;-64
2021/12/20 04:03:08;;;;;;;6.53;4.30;;;;;;;;;;5091778;28;20826;-57
2021/12/20 04:05:34;;;;;;;11.00;4.90;;;;;;;;;;5091993;28;20413;-59
2021/12/20 04:08:00;;;;;;;11.10;4.73;;;;;;;;;;5091901;28;20445;-58
2021/12/20 04:10:26;;;;;;;7.20;4.63;;;;;;;;;;5093630;28;20459;-59
2021/12/20 04:12:52;;;;;;;4.77;4.37;;;;;;;;;;5095717;28;20409;-61
2021/12/20 04:15:18;;;;;;;10.83;4.80;;;;;;;;;;5095685;28;20917;-58
2021/12/20 04:17:44;;;;;;;7.57;4.30;;;;;;;;;;5095678;28;20463;-58
2021/12/20 04:20:10;;;;;;;12.00;5.13;;;;;;;;;;5095569;28;21014;-53
2021/12/20 04:22:36;;;;;;;8.03;4.70;;;;;;;;;;5095496;28;21026;-54
2021/12/20 04:25:03;;;;;;;6.60;4.40;;;;;;;;;;5095562;28;20402;-53
2021/12/20 04:27:29;;;;;;;7.60;4.33;;;;;;;;;;5095546;28;20500;-54
2021/12/20 04:29:55;;;;;;;10.83;4.83;;;;;;;;;;5095477;28;20435;-54
2021/12/20 04:32:22;;;;;;;9.50;4.17;;;;;;;;;;5094010;28;20417;-53
2021/12/20 04:34:48;;;;;;;6.00;4.33;;;;;;;;;;5095440;28;20409;-55
2021/12/20 04:37:14;;;;;;;6.00;4.00;;;;;;;;;;5095282;28;20475;-53
2021/12/20 04:39:40;;;;;;;9.60;4.60;;;;;;;;;;5095506;28;20402;-55
2021/12/20 04:42:08;;;;;;;9.10;4.10;;;;;;;;;;5095050;28;20832;-56
2021/12/20 04:44:34;;;;;;;11.00;4.13;;;;;;;;;;5095130;28;20907;-52
2021/12/20 04:47:00;;;;;;;9.80;4.23;;;;;;;;;;5095275;28;20482;-53
2021/12/20 04:49:26;;;;;;;11.53;4.30;;;;;;;;;;5095113;28;20444;-55
2021/12/20 04:51:53;;;;;;;4.20;3.90;;;;;;;;;;5095078;28;20413;-55
2021/12/20 04:54:19;;;;;;;14.50;4.30;;;;;;;;;;5095179;28;20406;-54
2021/12/20 04:56:45;;;;;;;7.40;4.07;;;;;;;;;;5094850;28;20417;-55
2021/12/20 04:59:11;;;;;;;13.77;4.83;;;;;;;;;;5095159;28;20405;-57
2021/12/20 05:01:37;;;;;;;7.87;4.50;;;;;;;;;;5094817;28;20520;-64
2021/12/20 05:04:04;;;;;;;9.97;4.13;;;;;;;;;;5095069;28;20439;-59
2021/12/20 05:06:32;;;;;;;8.57;4.10;;;;;;;;;;5094850;28;20421;-58
2021/12/20 05:08:58;;;;;;;11.97;4.33;;;;;;;;;;5095012;28;20409;-54
2021/12/20 05:11:25;;;;;;;8.73;4.40;;;;;;;;;;5094949;28;20416;-52
2021/12/20 05:13:52;;;;;;;9.53;4.67;;;;;;;;;;5093731;28;20817;-61
2021/12/20 05:16:18;;;;;;;5.23;4.17;;;;;;;;;;5094808;28;20414;-57
2021/12/20 05:18:44;;;;;;;11.20;4.37;;;;;;;;;;5094528;28;20440;-55
2021/12/20 05:21:10;;;;;;;14.50;5.00;;;;;;;;;;5093941;28;20473;-56
2021/12/20 05:23:35;;;;;;;9.43;4.30;;;;;;;;;;5094352;28;20762;-58
2021/12/20 05:26:01;;;;;;;6.87;3.80;;;;;;;;;;5094335;28;20406;-53
2021/12/20 05:28:27;;;;;;;7.47;4.13;;;;;;;;;;5094385;28;20410;-54
2021/12/20 05:30:53;;;;;;;5.17;4.00;;;;;;;;;;5093059;28;20422;-56
2021/12/20 05:33:20;;;;;;;11.70;4.30;;;;;;;;;;5094501;28;20445;-63
2021/12/20 05:35:46;;;;;;;15.67;4.10;;;;;;;;;;5094642;28;20493;-61
2021/12/20 05:38:12;;;;;;;4.27;3.77;;;;;;;;;;5094346;28;20546;-56
2021/12/20 05:40:38;;;;;;;6.60;3.63;;;;;;;;;;5094226;28;20891;-57
2021/12/20 05:43:04;;;;;;;12.03;3.13;;;;;;;;;;5094577;28;20778;-56
2021/12/20 05:45:30;;;;;;;11.07;4.53;;;;;;;;;;5094240;28;20873;-54
2021/12/20 05:47:56;;;;;;;6.87;3.90;;;;;;;;;;5093800;28;20773;-54
2021/12/20 05:50:24;;;;;;;7.87;4.50;;;;;;;;;;5094055;28;20417;-52
2021/12/20 05:52:50;;;;;;;8.70;3.87;;;;;;;;;;5094297;28;20384;-65
2021/12/20 05:55:17;;;;;;;5.40;4.23;;;;;;;;;;5094113;28;20414;-57
2021/12/20 05:57:43;;;;;;;15.80;4.20;;;;;;;;;;5094481;28;20426;-56
2021/12/20 06:00:14;;;;;;;9.07;4.40;;;;;;;;;;5094280;28;20420;-59
2021/12/20 06:02:41;;;;;;;10.60;4.10;;;;;;;;;;5094288;28;20457;-58
2021/12/20 06:05:07;;;;;;;4.33;3.63;;;;;;;;;;5093811;28;20406;-64
2021/12/20 06:07:36;;;;;;;10.70;3.70;;;;;;;;;;5093698;28;20414;-59
2021/12/20 06:10:02;;;;;;;11.87;4.83;;;;;;;;;;5092434;28;20774;-58
2021/12/20 06:12:28;;;;;;;8.97;4.30;;;;;;;;;;5093570;28;20505;-59
2021/12/20 06:14:54;;;;;;;5.13;4.07;;;;;;;;;;5093638;28;20462;-56
2021/12/20 06:17:20;;;;;;;11.23;4.87;;;;;;;;;;5091970;28;21003;-55
2021/12/20 06:19:46;;;;;;;10.33;4.00;;;;;;;;;;5093194;28;20816;-57
2021/12/20 06:22:12;;;;;;;7.13;3.97;;;;;;;;;;5093357;28;20553;-58
2021/12/20 06:24:38;;;;;;;4.77;3.73;;;;;;;;;;5093426;28;20495;-58
2021/12/20 06:27:04;;;;;;;9.73;4.70;;;;;;;;;;5093316;28;20873;-54
2021/12/20 06:29:30;;;;;;;9.57;4.60;;;;;;;;;;5093289;28;20441;-52
2021/12/20 06:31:56;;;;;;;5.37;3.80;;;;;;;;;;5093139;28;20444;-55
2021/12/20 06:34:22;;;;;;;11.80;4.43;;;;;;;;;;5092743;28;20406;-56
2021/12/20 06:36:48;;;;;;;12.80;4.20;;;;;;;;;;5092863;28;20914;-59
2021/12/20 06:39:14;;;;;;;6.17;4.10;;;;;;;;;;5091629;28;20450;-57
2021/12/20 06:41:40;;;;;;;11.20;4.10;;;;;;;;;;5092857;28;20507;-55
2021/12/20 06:44:06;;;;;;;4.13;3.67;;;;;;;;;;5092736;28;20827;-57
2021/12/20 06:46:33;;;;;;;8.10;3.83;;;;;;;;;;5092714;28;20436;-57
2021/12/20 06:48:59;;;;;;;12.43;4.73;;;;;;;;;;5092664;28;20414;-56
2021/12/20 06:51:26;;;;;;;18.63;5.00;;;;;;;;;;5092700;28;20805;-58
2021/12/20 06:53:54;;;;;;;19.57;5.40;;;;;;;;;;5092551;28;20385;-59
2021/12/20 06:56:20;;;;;;;13.10;4.60;;;;;;;;;;5092388;28;20417;-55
2021/12/20 06:58:46;;;;;;;20.80;4.33;;;;;;;;;;5091257;28;20422;-54
2021/12/20 07:01:12;;;;;;;14.13;5.63;;;;;;;;;;5092551;28;20497;-61
2021/12/20 07:03:38;;;;;;;10.10;4.73;;;;;;;;;;5092596;28;20909;-55
2021/12/20 07:06:04;;;;;;;9.60;4.63;;;;;;;;;;5092266;28;20406;-58
2021/12/20 07:08:30;;;;;;;10.13;4.83;;;;;;;;;;5092413;28;20417;-59
2021/12/20 07:10:57;;;;;;;13.80;5.40;;;;;;;;;;5092148;28;20484;-57
2021/12/20 07:13:23;;;;;;;7.33;4.60;;;;;;;;;;5092605;28;20435;-62
2021/12/20 07:15:49;;;;;;;7.27;4.47;;;;;;;;;;5092395;28;20405;-63
2021/12/20 07:18:15;;;;;;;12.23;5.70;;;;;;;;;;5092299;28;20499;-57
2021/12/20 07:20:41;;;;;;;9.17;4.73;;;;;;;;;;5090541;28;21017;-57
2021/12/20 07:23:07;;;;;;;9.03;4.57;;;;;;;;;;5091924;28;20473;-55
2021/12/20 07:25:33;;;;;;;8.43;3.70;;;;;;;;;;5092165;28;20404;-57
2021/12/20 07:27:59;;;;;;;5.77;3.60;;;;;;;;;;5092091;28;20429;-54
2021/12/20 07:30:25;;;;;;;9.47;4.57;;;;;;;;;;5091859;28;20397;-55
2021/12/20 07:32:51;;;;;;;13.53;4.67;;;;;;;;;;5091996;28;20413;-55
2021/12/20 07:35:17;;;;;;;8.70;3.93;;;;;;;;;;5092062;28;20846;-54
2021/12/20 07:37:44;;;;;;;10.33;5.77;;;;;;;;;;5090637;28;20418;-53
2021/12/20 07:40:10;;;;;;;8.97;4.53;;;;;;;;;;5092452;28;20413;-54
2021/12/20 07:42:36;;;;;;;15.67;6.30;;;;;;;;;;5091811;28;20493;-56
2021/12/20 07:45:02;;;;;;;8.13;4.00;;;;;;;;;;5091450;28;20881;-54
2021/12/20 07:47:28;;;;;;;10.77;4.30;;;;;;;;;;5092038;28;20440;-57
2021/12/20 07:49:54;;;;;;;4.80;4.27;;;;;;;;;;5092115;28;20417;-56
2021/12/20 07:52:20;;;;;;;12.13;4.53;;;;;;;;;;5092033;28;20428;-56
2021/12/20 07:54:46;;;;;;;10.90;4.67;;;;;;;;;;5091978;28;20559;-56
2021/12/20 07:57:12;;;;;;;13.13;4.87;;;;;;;;;;5090349;28;20414;-53
2021/12/20 07:59:38;;;;;;;9.20;4.60;;;;;;;;;;5091546;28;20477;-54
2021/12/20 08:02:04;;;;;;;13.77;5.50;;;;;;;;;;5091759;28;20542;-59
2021/12/20 08:04:31;;;;;;;11.10;4.80;;;;;;;;;;5090592;28;20410;-60
2021/12/20 08:06:57;;;;;;;12.80;5.20;;;;;;;;;;5092030;28;20483;-58
2021/12/20 08:09:23;;;;;;;11.37;4.63;;;;;;;;;;5091732;28;20906;-56
2021/12/20 08:11:49;;;;;;;7.83;4.80;;;;;;;;;;5091546;28;20450;-57
2021/12/20 08:14:15;;;;;;;14.57;4.40;;;;;;;;;;5091888;28;20398;-58
2021/12/20 08:16:41;;;;;;;18.30;5.70;;;;;;;;;;5091578;28;20489;-57
2021/12/20 08:19:07;;;;;;;8.70;3.90;;;;;;;;;;5091477;28;20424;-59
2021/12/20 08:21:33;;;;;;;7.97;5.00;;;;;;;;;;5091033;28;20479;-57
2021/12/20 08:23:59;;;;;;;10.00;4.80;;;;;;;;;;5091250;28;20413;-55
2021/12/20 08:26:26;;;;;;;6.97;4.57;;;;;;;;;;5091679;28;20417;-59
2021/12/20 08:28:52;;;;;;;22.53;5.33;;;;;;;;;;5091844;28;20428;-57
2021/12/20 08:31:18;;;;;;;9.23;4.40;;;;;;;;;;5089877;28;20436;-55
2021/12/20 08:33:44;;;;;;;8.67;4.90;;;;;;;;;;5089744;28;20433;-55
2021/12/20 08:36:12;;;;;;;8.30;5.83;;;;;;;;;;5090057;28;20413;-54
2021/12/20 08:38:38;;;;;;;6.90;4.80;;;;;;;;;;5088509;28;20406;-58
2021/12/20 08:41:04;;;;;;;8.83;4.33;;;;;;;;;;5081590;28;20513;-57
2021/12/20 08:43:30;;;;;;;5.13;4.47;;;;;;;;;;5092622;28;20429;-56
2021/12/20 08:45:59;;;;;;;9.83;4.73;;;;;;;;;;5090884;28;20413;-57
2021/12/20 08:48:25;;;;;;;14.23;4.17;;;;;;;;;;5091269;28;20413;-58
2021/12/20 08:50:51;;;;;;;6.83;5.10;;;;;;;;;;5090904;28;20817;-55
2021/12/20 08:53:17;;;;;;;8.87;4.70;;;;;;;;;;5091483;28;20417;-59
2021/12/20 08:55:43;;;;;;;6.20;4.30;;;;;;;;;;5090900;28;20405;-59
2021/12/20 08:58:09;;;;;;;10.20;5.27;;;;;;;;;;5093764;28;20441;-59
2021/12/20 09:00:36;;;;;;;6.27;4.30;;;;;;;;;;5094379;28;20804;-59
2021/12/20 09:03:03;;;;;;;7.83;4.60;;;;;;;;;;5094561;28;20706;-62
2021/12/20 09:05:29;;;;;;;10.20;4.33;;;;;;;;;;5094606;28;20398;-57
2021/12/20 09:07:59;;;;;;;6.53;4.43;;;;;;;;;;5093111;28;20907;-62
2021/12/20 09:10:25;;;;;;;9.50;4.50;;;;;;;;;;5094777;28;20380;-59
2021/12/20 09:12:51;;;;;;;8.50;4.67;;;;;;;;;;5095225;28;20776;-59
2021/12/20 09:15:18;;;;;;;12.00;4.30;;;;;;;;;;5095254;28;20416;-57
2021/12/20 09:17:49;;;;;;;5.10;4.13;;;;;;;;;;5095343;28;20409;-60
2021/12/20 09:20:17;;;;;;;3.87;3.60;;;;;;;;;;5094039;28;20460;-56
2021/12/20 09:22:51;;;;;;;3.90;3.70;;;;;;;;;;5094515;28;20561;-57
2021/12/20 09:25:18;;;;;;;10.67;4.33;;;;;;;;;;5094577;28;20464;-55
2021/12/20 09:27:44;;;;;;;4.53;4.10;;;;;;;;;;5094596;28;20417;-56
2021/12/20 09:30:11;;;;;;;7.23;4.83;;;;;;;;;;5094420;28;20402;-58
2021/12/20 09:32:37;;;;;;;11.70;4.40;;;;;;;;;;5094472;28;20766;-58
2021/12/20 09:35:04;;;;;;;6.53;3.97;;;;;;;;;;5093733;28;20532;-55
2021/12/20 09:37:30;;;;;;;4.77;4.33;;;;;;;;;;5093875;28;20436;-57
2021/12/20 09:39:56;;;;;;;6.40;4.43;;;;;;;;;;5093876;28;20401;-57
2021/12/20 09:42:22;;;;;;;6.93;4.40;;;;;;;;;;5093991;28;20465;-60
2021/12/20 09:44:48;;;;;;;4.57;4.13;;;;;;;;;;5094376;28;20410;-59
2021/12/20 09:47:15;;;;;;;7.10;4.07;;;;;;;;;;5094363;28;20448;-58
2021/12/20 09:49:41;;;;;;;5.00;4.30;;;;;;;;;;5094277;28;20477;-57
2021/12/20 09:52:08;;;;;;;10.87;4.30;;;;;;;;;;5093833;28;20421;-60
2021/12/20 09:54:34;;;;;;;7.77;5.13;;;;;;;;;;5094165;28;20777;-58
2021/12/20 09:57:02;;;;;;;18.37;5.33;;;;;;;;;;5093851;28;20492;-57
2021/12/20 09:59:29;;;;;;;10.97;4.87;;;;;;;;;;5093853;28;20402;-58
2021/12/20 10:01:55;;;;;;;6.60;4.30;;;;;;;;;;5093149;28;20489;-63
2021/12/20 10:04:22;;;;;;;8.20;4.60;;;;;;;;;;5093697;28;20418;-60
2021/12/20 10:06:56;;;;;;;4.50;4.10;;;;;;;;;;5093974;28;20398;-61
2021/12/20 10:09:27;;;;;;;9.00;5.03;;;;;;;;;;5093410;28;20425;-61
2021/12/20 10:12:21;;;;;;;4.27;3.80;;;;;;;;;;5093185;28;20444;-57
2021/12/20 10:14:56;;;;;;;9.50;5.17;;;;;;;;;;5093195;28;20414;-58
2021/12/20 10:17:22;;;;;;;15.63;4.90;;;;;;;;;;5093361;28;20436;-58
2021/12/20 10:19:49;;;;;;;9.60;5.17;;;;;;;;;;5092717;28;20463;-61
2021/12/20 10:22:28;;;;;;;6.10;4.20;;;;;;;;;;5093094;28;20461;-60
2021/12/20 10:24:56;;;;;;;5.40;4.40;;;;;;;;;;5093131;28;20455;-58
2021/12/20 10:27:29;;;;;;;8.07;4.80;;;;;;;;;;5093151;28;20474;-67
2021/12/20 10:29:55;;;;;;;10.07;4.60;;;;;;;;;;5089189;28;20823;-63
2021/12/20 10:32:40;;;;;;;10.70;4.57;;;;;;;;;;5072668;28;20398;-68
2021/12/20 10:35:27;;;;;;;5.70;4.73;;;;;;;;;;5072810;28;20407;-65
2021/12/20 10:38:02;;;;;;;8.87;4.30;;;;;;;;;;5072438;28;20387;-59
2021/12/20 10:40:28;;;;;;;6.20;4.30;;;;;;;;;;5072772;28;20555;-65
2021/12/20 10:42:56;;;;;;;9.60;4.47;;;;;;;;;;5072420;28;21043;-61
2021/12/20 10:45:23;;;;;;;5.83;4.17;;;;;;;;;;5072582;28;20489;-59
2021/12/20 10:47:50;;;;;;;7.47;4.80;;;;;;;;;;5072328;28;20760;-59
2021/12/20 10:50:20;;;;;;;6.57;4.03;;;;;;;;;;5072139;28;20406;-64
2021/12/20 10:52:46;;;;;;;6.03;4.40;;;;;;;;;;5072199;28;20410;-60
2021/12/20 10:55:12;;;;;;;6.47;4.70;;;;;;;;;;5072436;28;20414;-59
2021/12/20 10:57:38;;;;;;;9.43;4.70;;;;;;;;;;5072476;28;20753;-64
2021/12/20 11:00:18;;;;;;;8.20;4.43;;;;;;;;;;5071712;28;20411;-64
2021/12/20 11:05:38;;;;;;;11.23;4.30;;;;;;;;;;5072425;28;20484;-64
2021/12/20 11:11:09;;;;;;;4.93;3.80;;;;;;;;;;5072171;28;20418;-67
2021/12/20 11:13:38;;;;;;;12.03;4.60;;;;;;;;;;5071745;28;20527;-63
2021/12/20 11:16:26;;;;;;;5.30;4.77;;;;;;;;;;5072084;28;20421;-63
2021/12/20 11:19:07;;;;;;;6.83;4.70;;;;;;;;;;5071833;28;20444;-61
2021/12/20 11:21:36;;;;;;;6.30;4.53;;;;;;;;;;5071106;28;20544;-59
2021/12/20 11:24:03;;;;;;;9.33;4.90;;;;;;;;;;5071895;28;20840;-62
2021/12/20 11:26:29;;;;;;;14.57;4.53;;;;;;;;;;5071995;28;20782;-61
2021/12/20 11:28:56;;;;;;;5.63;4.70;;;;;;;;;;5072121;28;20497;-62
2021/12/20 11:31:23;;;;;;;5.03;4.10;;;;;;;;;;5071762;28;20502;-63
2021/12/20 11:33:49;;;;;;;6.57;4.90;;;;;;;;;;5071493;28;20605;-63
2021/12/20 11:36:15;;;;;;;4.57;3.93;;;;;;;;;;5071941;28;20403;-62
2021/12/20 11:38:41;;;;;;;7.37;5.20;;;;;;;;;;5071868;28;20468;-67
2021/12/20 11:41:08;;;;;;;13.03;4.30;;;;;;;;;;5071850;28;20494;-68
2021/12/20 11:43:34;;;;;;;12.73;5.50;;;;;;;;;;5071431;28;20840;-66
2021/12/20 11:46:00;;;;;;;9.80;4.90;;;;;;;;;;5071728;28;20452;-57
2021/12/20 11:48:28;;;;;;;11.57;4.77;;;;;;;;;;5071861;28;20418;-69
2021/12/20 11:50:58;;;;;;;19.33;5.20;;;;;;;;;;5070024;28;20773;-61
2021/12/20 11:53:24;;;;;;;8.37;4.90;;;;;;;;;;5071600;28;20423;-60
2021/12/20 11:55:54;;;;;;;5.60;4.33;;;;;;;;;;5071574;28;20504;-63
2021/12/20 11:58:20;;;;;;;9.73;5.13;;;;;;;;;;5071672;28;20422;-69
2021/12/20 12:00:50;;;;;;;8.53;4.40;;;;;;;;;;5071301;28;20411;-65
2021/12/20 12:03:16;;;;;;;4.07;3.77;;;;;;;;;;5071464;28;20982;-60
2021/12/20 12:05:48;;;;;;;6.07;4.63;;;;;;;;;;5071565;28;20406;-61
2021/12/20 12:08:23;;;;;;;7.87;4.60;;;;;;;;;;5071900;28;20437;-65
2021/12/20 12:10:49;;;;;;;7.10;5.30;;;;;;;;;;5071462;28;20485;-57
2021/12/20 12:13:17;;;;;;;8.67;4.40;;;;;;;;;;5071490;28;20438;-54
2021/12/20 12:16:26;;;;;;;8.90;5.00;;;;;;;;;;5069975;28;20464;-57
2021/12/20 12:18:52;;;;;;;8.73;4.73;;;;;;;;;;5071595;28;20431;-55
2021/12/20 12:21:36;;;;;;;8.80;5.10;;;;;;;;;;5071002;28;20449;-57
2021/12/20 12:24:05;;;;;;;6.77;4.87;;;;;;;;;;5071103;28;20422;-53
2021/12/20 12:26:32;;;;;;;6.97;4.57;;;;;;;;;;5071515;28;20415;-55
2021/12/20 12:28:59;;;;;;;4.83;4.17;;;;;;;;;;5071527;28;20895;-54
2021/12/20 12:31:26;;;;;;;5.67;4.60;;;;;;;;;;5072636;28;20468;-59
2021/12/20 12:34:11;;;;;;;9.67;5.30;;;;;;;;;;5074556;28;20506;-60
2021/12/20 12:36:40;;;;;;;5.93;5.00;;;;;;;;;;5075234;28;20419;-56
2021/12/20 12:39:09;;;;;;;5.57;4.20;;;;;;;;;;5075046;28;20974;-53
2021/12/20 12:41:44;;;;;;;7.90;4.83;;;;;;;;;;5074486;28;21037;-58
2021/12/20 12:44:16;;;;;;;5.67;4.57;;;;;;;;;;5074936;28;20942;-54
2021/12/20 12:46:45;;;;;;;7.90;4.90;;;;;;;;;;5074922;28;20419;-54
2021/12/20 12:49:24;;;;;;;8.90;4.30;;;;;;;;;;5073599;28;20506;-57
2021/12/20 12:51:57;;;;;;;12.53;5.00;;;;;;;;;;5072614;28;20945;-54
2021/12/20 12:54:43;;;;;;;11.27;5.30;;;;;;;;;;5074622;28;20501;-54
2021/12/20 12:57:13;;;;;;;7.33;5.03;;;;;;;;;;5074877;28;20923;-56
2021/12/20 12:59:42;;;;;;;7.30;5.03;;;;;;;;;;5074313;28;20399;-55
2021/12/20 13:02:09;;;;;;;8.20;4.73;;;;;;;;;;5074313;28;20815;-55
2021/12/20 13:04:45;;;;;;;10.87;5.20;;;;;;;;;;5074595;28;20410;-57
2021/12/20 13:07:12;;;;;;;6.67;4.57;;;;;;;;;;5074895;28;20414;-56
2021/12/20 13:09:44;;;;;;;13.60;5.67;;;;;;;;;;5074286;28;20403;-60
2021/12/20 13:12:18;;;;;;;8.63;4.40;;;;;;;;;;5074255;28;20407;-57
2021/12/20 13:14:51;;;;;;;7.97;5.03;;;;;;;;;;5074027;28;20406;-63
2021/12/20 13:17:31;;;;;;;6.70;4.87;;;;;;;;;;5074412;28;20455;-60
2021/12/20 13:20:07;;;;;;;8.90;5.20;;;;;;;;;;5073678;28;20462;-65
2021/12/20 13:22:33;;;;;;;8.57;4.80;;;;;;;;;;5074085;28;20898;-58
2021/12/20 13:24:59;;;;;;;12.67;5.30;;;;;;;;;;5074122;28;20406;-57
2021/12/20 13:27:31;;;;;;;7.83;4.67;;;;;;;;;;5074141;28;20851;-58
2021/12/20 13:29:59;;;;;;;14.83;5.13;;;;;;;;;;5073635;28;20540;-57
2021/12/20 13:32:25;;;;;;;5.53;4.90;;;;;;;;;;5074040;28;20762;-57
2021/12/20 13:34:51;;;;;;;5.87;4.57;;;;;;;;;;5073981;28;20493;-59
2021/12/20 13:37:17;;;;;;;13.10;5.43;;;;;;;;;;5074046;28;20411;-59
2021/12/20 13:39:53;;;;;;;6.93;4.80;;;;;;;;;;5073370;28;20464;-58
2021/12/20 13:42:19;;;;;;;6.90;4.90;;;;;;;;;;5073048;28;20476;-59
2021/12/20 13:44:45;;;;;;;13.90;5.20;;;;;;;;;;5073520;28;20425;-60
2021/12/20 13:47:16;;;;;;;13.03;4.73;;;;;;;;;;5073559;28;20399;-58
2021/12/20 13:49:43;;;;;;;5.23;4.70;;;;;;;;;;5073574;28;20433;-57
2021/12/20 13:52:12;;;;;;;9.37;5.30;;;;;;;;;;5073465;28;20418;-60
2021/12/20 13:54:39;;;;;;;10.30;5.93;;;;;;;;;;5072537;28;20414;-61
2021/12/20 13:57:14;;;;;;;4.87;4.47;;;;;;;;;;5073219;28;20442;-60
2021/12/20 13:59:47;;;;;;;6.97;4.60;;;;;;;;;;5073051;28;20410;-61
2021/12/20 14:02:14;;;;;;;14.87;4.77;;;;;;;;;;5073204;28;20477;-57
2021/12/20 14:04:42;;;;;;;6.17;5.00;;;;;;;;;;5073425;28;20407;-57
2021/12/20 14:07:28;;;;;;;13.03;5.00;;;;;;;;;;5073234;28;20410;-58
2021/12/20 14:10:08;;;;;;;11.50;5.47;;;;;;;;;;5072675;28;20399;-58
2021/12/20 14:12:47;;;;;;;7.10;5.07;;;;;;;;;;5073017;28;20513;-57
2021/12/20 14:15:18;;;;;;;7.40;4.73;;;;;;;;;;5073276;28;20740;-57
2021/12/20 14:17:53;;;;;;;12.30;6.10;;;;;;;;;;5073437;28;20822;-57
2021/12/20 14:20:19;;;;;;;5.47;4.97;;;;;;;;;;5072681;28;20449;-58
2021/12/20 14:22:55;;;;;;;5.37;4.93;;;;;;;;;;5073112;28;20553;-58
2021/12/20 14:25:28;;;;;;;10.20;5.50;;;;;;;;;;5073047;28;20414;-59
2021/12/20 14:28:06;;;;;;;13.20;5.47;;;;;;;;;;5071337;28;20407;-58
2021/12/20 14:30:32;;;;;;;12.53;5.93;;;;;;;;;;5072703;28;20402;-59
2021/12/20 14:32:58;;;;;;;13.77;5.67;;;;;;;;;;5073241;28;20482;-57
2021/12/20 14:35:29;;;;;;;9.70;5.00;;;;;;;;;;5072845;28;20861;-59
2021/12/20 14:37:55;;;;;;;6.57;4.83;;;;;;;;;;5072376;28;20972;-57
2021/12/20 14:40:40;;;;;;;10.40;4.93;;;;;;;;;;5072725;28;20407;-57
2021/12/20 14:43:07;;;;;;;9.60;5.43;;;;;;;;;;5072425;28;20549;-57
2021/12/20 14:45:33;;;;;;;12.77;5.70;;;;;;;;;;5072921;28;20433;-57
2021/12/20 14:48:15;;;;;;;14.90;5.53;;;;;;;;;;5072489;28;20426;-58
2021/12/20 14:50:44;;;;;;;17.80;5.63;;;;;;;;;;5072526;28;20453;-58
2021/12/20 14:53:16;;;;;;;9.23;5.40;;;;;;;;;;5072856;28;20709;-61
2021/12/20 14:55:42;;;;;;;8.97;5.50;;;;;;;;;;5072262;28;20402;-57
2021/12/20 14:58:08;;;;;;;8.30;6.00;;;;;;;;;;5072159;28;20439;-56
2021/12/20 15:00:35;;;;;;;9.03;5.93;;;;;;;;;;5072139;28;20407;-57